createdAt,value
2019-01-25T00:02:00.304Z,85.71
2019-01-25T00:04:31.047Z,85.60
2019-01-25T00:07:01.360Z,85.63
2019-01-25T00:09:31.622Z,85.69
2019-01-25T00:12:02.503Z,86.00
2019-01-25T00:14:32.820Z,86.22
2019-01-25T00:17:03.166Z,86.29
2019-01-25T00:19:34.585Z,85.91
2019-01-25T00:22:04.878Z,85.70
2019-01-25T00:24:35.276Z,85.69
2019-01-25T00:27:05.728Z,85.76
2019-01-25T00:29:36.062Z,85.94
2019-01-25T00:32:06.540Z,86.08
2019-01-25T00:34:36.673Z,86.25
2019-01-25T00:37:06.911Z,86.36
2019-01-25T00:39:38.188Z,86.31
2019-01-25T00:42:08.359Z,86.12
2019-01-25T00:44:38.624Z,85.88
2019-01-25T00:47:08.793Z,85.68
2019-01-25T00:49:39.469Z,85.65
2019-01-25T00:52:09.983Z,85.74
2019-01-25T00:54:41.077Z,85.90
2019-01-25T00:57:11.515Z,86.10
2019-01-25T00:59:41.700Z,86.15
2019-01-25T01:02:12.305Z,85.57
2019-01-25T01:04:42.617Z,85.57
2019-01-25T01:07:13.369Z,85.42
2019-01-25T01:09:43.813Z,85.45
2019-01-25T01:12:14.180Z,85.65
2019-01-25T01:14:44.460Z,85.78
2019-01-25T01:17:14.782Z,85.71
2019-01-25T01:19:45.061Z,85.71
2019-01-25T01:22:15.237Z,85.90
2019-01-25T01:24:45.406Z,85.83
2019-01-25T01:27:15.632Z,85.87
2019-01-25T01:29:45.829Z,85.88
2019-01-25T01:32:16.053Z,86.06
2019-01-25T01:34:46.294Z,86.01
2019-01-25T01:37:16.455Z,85.88
2019-01-25T01:39:46.660Z,85.85
2019-01-25T01:42:16.819Z,85.67
2019-01-25T01:44:47.754Z,85.39
2019-01-25T01:47:18.056Z,85.23
2019-01-25T01:49:48.424Z,85.25
2019-01-25T01:52:18.579Z,85.39
2019-01-25T01:54:48.741Z,85.63
2019-01-25T01:57:19.158Z,85.65
2019-01-25T01:59:49.320Z,85.71
2019-01-25T02:02:19.470Z,85.78
2019-01-25T02:04:49.744Z,85.78
2019-01-25T02:07:20.362Z,85.88
2019-01-25T02:09:50.898Z,85.98
2019-01-25T02:12:21.187Z,86.12
2019-01-25T02:14:51.390Z,86.12
2019-01-25T02:17:21.742Z,86.04
2019-01-25T02:19:51.934Z,85.85
2019-01-25T02:22:22.053Z,85.63
2019-01-25T02:24:52.203Z,85.62
2019-01-25T02:27:22.478Z,85.83
2019-01-25T02:29:52.664Z,86.08
2019-01-25T02:32:22.820Z,86.13
2019-01-25T02:34:52.960Z,86.00
2019-01-25T02:37:23.179Z,85.83
2019-01-25T02:39:53.299Z,85.78
2019-01-25T02:42:24.535Z,85.79
2019-01-25T02:44:54.774Z,85.77
2019-01-25T02:47:25.014Z,85.76
2019-01-25T02:49:55.113Z,85.66
2019-01-25T02:52:25.286Z,85.70
2019-01-25T02:54:55.499Z,85.74
2019-01-25T02:57:25.832Z,85.72
2019-01-25T02:59:56.176Z,85.73
2019-01-25T03:02:26.878Z,85.88
2019-01-25T03:04:57.272Z,85.81
2019-01-25T03:07:27.992Z,85.72
2019-01-25T03:09:58.447Z,85.77
2019-01-25T03:12:28.724Z,85.66
2019-01-25T03:14:58.998Z,85.59
2019-01-25T03:17:29.331Z,85.58
2019-01-25T03:19:59.498Z,85.74
2019-01-25T03:22:29.744Z,85.63
2019-01-25T03:25:00.019Z,85.50
2019-01-25T03:27:30.257Z,85.51
2019-01-25T03:30:00.517Z,85.69
2019-01-25T03:32:31.028Z,85.70
2019-01-25T03:35:01.417Z,85.68
2019-01-25T03:37:32.613Z,85.76
2019-01-25T03:40:02.966Z,85.58
2019-01-25T03:42:33.115Z,85.46
2019-01-25T03:45:03.375Z,85.35
2019-01-25T03:47:33.769Z,84.78
2019-01-25T03:50:04.854Z,84.77
2019-01-25T03:52:35.197Z,85.10
2019-01-25T03:55:09.049Z,85.39
2019-01-25T03:57:39.414Z,86.03
2019-01-25T04:00:13.508Z,86.29
2019-01-25T04:02:43.773Z,85.94
2019-01-25T04:05:15.499Z,85.74
2019-01-25T04:07:46.357Z,85.55
2019-01-25T04:10:19.033Z,84.89
2019-01-25T04:12:50.163Z,83.74
2019-01-25T04:15:22.869Z,83.71
2019-01-25T04:17:53.242Z,83.87
2019-01-25T04:20:23.744Z,83.71
2019-01-25T04:22:53.968Z,83.43
2019-01-25T04:25:24.330Z,82.97
2019-01-25T04:27:54.852Z,82.01
2019-01-25T04:30:34.225Z,80.89
2019-01-25T04:33:05.030Z,79.61
2019-01-25T04:35:35.605Z,79.48
2019-01-25T04:38:06.034Z,79.67
2019-01-25T04:40:36.263Z,80.18
2019-01-25T04:43:06.944Z,80.60
2019-01-25T04:45:37.171Z,80.39
2019-01-25T04:48:13.168Z,79.25
2019-01-25T04:50:43.613Z,78.56
2019-01-25T04:53:13.877Z,78.93
2019-01-25T04:55:44.117Z,78.69
2019-01-25T04:58:18.777Z,77.93
2019-01-25T05:00:49.324Z,78.19
2019-01-25T05:03:19.687Z,78.42
2019-01-25T05:05:49.881Z,78.83
2019-01-25T05:08:22.994Z,78.69
2019-01-25T05:10:53.656Z,78.61
2019-01-25T05:13:24.067Z,78.53
2019-01-25T05:15:54.356Z,78.77
2019-01-25T05:18:24.736Z,79.26
2019-01-25T05:20:54.902Z,79.44
2019-01-25T05:23:25.074Z,79.79
2019-01-25T05:25:55.331Z,79.83
2019-01-25T05:28:26.115Z,79.74
2019-01-25T05:31:04.594Z,79.63
2019-01-25T05:33:34.770Z,79.27
2019-01-25T05:36:06.174Z,78.74
2019-01-25T05:38:36.769Z,78.77
2019-01-25T05:41:07.037Z,79.08
2019-01-25T05:43:40.031Z,79.62
2019-01-25T05:46:10.331Z,79.83
2019-01-25T05:48:40.835Z,80.05
2019-01-25T05:51:11.519Z,80.19
2019-01-25T05:53:49.700Z,80.30
2019-01-25T05:56:20.173Z,80.29
2019-01-25T05:58:50.374Z,80.04
2019-01-25T06:01:21.137Z,80.92
2019-01-25T06:03:51.445Z,81.30
2019-01-25T06:06:21.699Z,81.37
2019-01-25T06:08:52.100Z,80.64
2019-01-25T06:11:22.366Z,80.56
2019-01-25T06:13:52.653Z,80.77
2019-01-25T06:16:23.240Z,81.09
2019-01-25T06:18:53.443Z,81.24
2019-01-25T06:21:23.737Z,81.26
2019-01-25T06:23:56.070Z,81.38
2019-01-25T06:26:26.204Z,81.81
2019-01-25T06:28:56.546Z,81.96
2019-01-25T06:31:26.729Z,81.53
2019-01-25T06:33:56.937Z,81.21
2019-01-25T06:36:27.199Z,81.08
2019-01-25T06:38:57.335Z,81.33
2019-01-25T06:41:27.505Z,81.59
2019-01-25T06:43:57.713Z,81.66
2019-01-25T06:46:28.352Z,81.59
2019-01-25T06:49:00.555Z,81.96
2019-01-25T06:59:36.376Z,82.95
2019-01-25T07:02:16.820Z,82.64
2019-01-25T07:04:48.622Z,82.65
2019-01-25T07:07:25.253Z,82.91
2019-01-25T07:09:55.673Z,83.19
2019-01-25T07:12:26.215Z,83.92
2019-01-25T07:14:57.064Z,83.66
2019-01-25T07:17:27.653Z,83.67
2019-01-25T07:19:57.973Z,83.59
2019-01-25T07:22:28.792Z,83.72
2019-01-25T07:24:59.164Z,83.87
2019-01-25T07:27:29.575Z,85.01
2019-01-25T07:29:59.978Z,85.40
2019-01-25T07:32:31.223Z,85.89
2019-01-25T07:35:02.149Z,86.34
2019-01-25T07:37:32.925Z,86.19
2019-01-25T07:40:07.076Z,85.64
2019-01-25T07:42:37.560Z,85.39
2019-01-25T07:45:08.304Z,85.31
2019-01-25T07:47:38.589Z,85.14
2019-01-25T07:50:09.228Z,84.73
2019-01-25T07:52:40.183Z,84.55
2019-01-25T07:55:11.001Z,84.47
2019-01-25T07:57:41.656Z,84.51
2019-01-25T08:00:12.426Z,84.44
2019-01-25T08:02:43.035Z,84.35
2019-01-25T08:05:13.749Z,84.33
2019-01-25T08:07:44.321Z,84.62
2019-01-25T08:10:17.756Z,84.88
2019-01-25T08:12:48.264Z,85.25
2019-01-25T08:15:19.827Z,84.93
2019-01-25T08:17:50.509Z,84.80
2019-01-25T08:20:21.250Z,84.51
2019-01-25T08:22:51.712Z,83.79
2019-01-25T08:25:25.527Z,84.08
2019-01-25T08:27:56.038Z,84.09
2019-01-25T08:30:26.820Z,83.67
2019-01-25T08:32:57.392Z,82.69
2019-01-25T08:35:28.315Z,82.12
2019-01-25T08:37:58.695Z,82.00
2019-01-25T08:40:30.488Z,81.94
2019-01-25T08:43:00.866Z,81.64
2019-01-25T08:45:31.408Z,81.09
2019-01-25T08:48:02.056Z,80.15
2019-01-25T08:50:32.505Z,77.94
2019-01-25T08:53:03.206Z,76.83
2019-01-25T08:55:34.392Z,75.41
2019-01-25T08:58:05.078Z,74.44
2019-01-25T09:00:35.911Z,72.02
2019-01-25T09:03:07.469Z,69.92
2019-01-25T09:05:38.367Z,69.65
2019-01-25T09:08:09.594Z,70.66
2019-01-25T09:10:39.912Z,70.35
2019-01-25T09:13:10.210Z,69.06
2019-01-25T09:15:40.450Z,68.29
2019-01-25T09:18:11.123Z,67.49
2019-01-25T09:20:41.342Z,68.64
2019-01-25T09:23:11.625Z,67.13
2019-01-25T09:25:42.247Z,65.79
2019-01-25T09:28:12.783Z,62.91
2019-01-25T09:30:43.110Z,60.36
2019-01-25T09:33:13.569Z,57.57
2019-01-25T09:35:43.799Z,55.59
2019-01-25T09:38:14.128Z,52.25
2019-01-25T09:40:44.954Z,49.31
2019-01-25T09:43:15.249Z,48.64
2019-01-25T09:45:45.491Z,45.42
2019-01-25T09:48:15.799Z,46.33
2019-01-25T09:50:52.698Z,44.69
2019-01-25T09:53:20.986Z,42.72
2019-01-25T09:55:51.400Z,42.09
2019-01-25T09:58:21.579Z,45.03
2019-01-25T10:00:57.032Z,47.64
2019-01-25T10:03:27.627Z,46.56
2019-01-25T10:05:58.005Z,45.89
2019-01-25T10:08:28.625Z,46.37
2019-01-25T10:10:59.054Z,46.57
2019-01-25T10:13:29.287Z,46.19
2019-01-25T10:15:59.821Z,46.09
2019-01-25T10:18:30.554Z,45.47
2019-01-25T10:21:01.006Z,50.31
2019-01-25T10:23:31.188Z,50.69
2019-01-25T10:26:01.445Z,52.60
2019-01-25T10:28:31.936Z,52.64
2019-01-25T10:31:02.518Z,53.15
2019-01-25T10:33:33.977Z,55.12
2019-01-25T10:36:04.611Z,56.40
2019-01-25T10:38:35.042Z,55.05
2019-01-25T10:41:05.770Z,55.15
2019-01-25T10:43:36.369Z,53.96
2019-01-25T10:46:06.756Z,53.63
2019-01-25T10:48:37.228Z,53.69
2019-01-25T10:51:07.390Z,54.36
2019-01-25T10:53:37.807Z,53.58
2019-01-25T10:56:08.380Z,53.71
2019-01-25T10:58:38.641Z,54.42
2019-01-25T11:01:08.840Z,53.32
2019-01-25T11:03:39.181Z,53.84
2019-01-25T11:06:09.295Z,52.49
2019-01-25T11:08:39.435Z,51.94
2019-01-25T11:11:09.779Z,53.49
2019-01-25T11:13:40.086Z,53.26
2019-01-25T11:16:11.975Z,52.66
2019-01-25T11:18:42.338Z,52.62
2019-01-25T11:21:12.713Z,52.13
2019-01-25T11:23:43.454Z,50.25
2019-01-25T11:26:13.884Z,49.68
2019-01-25T11:28:44.053Z,49.23
2019-01-25T11:31:14.329Z,49.20
2019-01-25T11:33:44.692Z,50.83
2019-01-25T11:36:15.151Z,50.90
2019-01-25T11:38:45.900Z,51.04
2019-01-25T11:41:16.712Z,51.01
2019-01-25T11:43:47.061Z,51.56
2019-01-25T11:46:17.500Z,50.85
2019-01-25T11:48:47.808Z,51.36
2019-01-25T11:51:19.909Z,51.48
2019-01-25T11:53:51.000Z,51.72
2019-01-25T11:56:26.145Z,51.15
2019-01-25T11:58:56.970Z,51.66
2019-01-25T12:01:27.289Z,50.03
2019-01-25T12:03:57.606Z,49.35
2019-01-25T12:06:28.035Z,47.68
2019-01-25T12:08:58.919Z,44.23
2019-01-25T12:11:29.166Z,44.16
2019-01-25T12:13:59.522Z,42.95
2019-01-25T12:16:29.874Z,41.62
2019-01-25T12:19:01.304Z,42.71
2019-01-25T12:21:31.777Z,40.68
2019-01-25T12:24:02.812Z,40.23
2019-01-25T12:26:34.193Z,41.14
2019-01-25T12:29:04.977Z,40.03
2019-01-25T12:31:35.406Z,38.04
2019-01-25T12:34:06.108Z,35.22
2019-01-25T12:36:36.660Z,35.22
2019-01-25T12:39:10.889Z,35.79
2019-01-25T12:41:41.414Z,36.42
2019-01-25T12:44:12.108Z,37.72
2019-01-25T12:46:42.751Z,38.70
2019-01-25T12:49:14.395Z,39.18
2019-01-25T12:51:55.567Z,43.87
2019-01-25T12:54:26.120Z,43.31
2019-01-25T12:56:56.726Z,42.71
2019-01-25T12:59:27.430Z,42.30
2019-01-25T13:01:59.314Z,42.28
2019-01-25T13:04:29.640Z,42.66
2019-01-25T13:07:00.532Z,44.45
2019-01-25T13:09:31.074Z,46.76
2019-01-25T13:12:01.872Z,46.74
2019-01-25T13:14:32.985Z,46.53
2019-01-25T13:17:03.701Z,48.73
2019-01-25T13:19:34.807Z,49.08
2019-01-25T13:22:05.804Z,49.81
2019-01-25T13:24:36.435Z,51.19
2019-01-25T13:27:07.247Z,51.70
2019-01-25T13:29:37.657Z,50.52
2019-01-25T13:32:08.391Z,51.05
2019-01-25T13:34:40.116Z,51.99
2019-01-25T13:37:13.472Z,53.31
2019-01-25T13:39:44.141Z,54.59
2019-01-25T13:42:14.931Z,56.74
2019-01-25T13:44:45.494Z,56.79
2019-01-25T13:47:16.427Z,56.67
2019-01-25T13:49:46.799Z,57.08
2019-01-25T13:52:17.426Z,56.50
2019-01-25T13:54:48.170Z,56.73
2019-01-25T13:57:19.150Z,57.15
2019-01-25T13:59:49.884Z,58.10
2019-01-25T14:02:20.682Z,57.57
2019-01-25T14:04:51.139Z,59.56
2019-01-25T14:07:21.941Z,61.53
2019-01-25T14:09:52.884Z,60.79
2019-01-25T14:12:23.623Z,60.60
2019-01-25T14:14:54.483Z,60.79
2019-01-25T14:17:25.071Z,61.36
2019-01-25T14:19:55.996Z,61.73
2019-01-25T14:22:26.371Z,62.04
2019-01-25T14:24:58.507Z,63.37
2019-01-25T14:27:28.906Z,62.61
2019-01-25T14:29:59.552Z,62.50
2019-01-25T14:32:30.343Z,64.52
2019-01-25T14:35:01.341Z,63.29
2019-01-25T14:37:32.356Z,62.87
2019-01-25T14:40:03.161Z,62.93
2019-01-25T14:42:33.595Z,63.24
2019-01-25T14:45:04.119Z,63.10
2019-01-25T14:47:34.566Z,63.72
2019-01-25T14:50:06.978Z,64.13
2019-01-25T14:52:37.622Z,64.25
2019-01-25T14:55:08.547Z,64.10
2019-01-25T14:57:38.867Z,64.48
2019-01-25T15:00:10.032Z,65.64
2019-01-25T15:02:40.917Z,65.13
2019-01-25T15:05:14.866Z,66.61
2019-01-25T15:07:45.438Z,66.91
2019-01-25T15:10:20.419Z,67.51
2019-01-25T15:12:52.361Z,68.23
2019-01-25T15:15:23.407Z,68.87
2019-01-25T15:17:54.225Z,68.66
2019-01-25T15:20:27.112Z,68.60
2019-01-25T15:22:57.958Z,68.76
2019-01-25T15:25:29.126Z,68.43
2019-01-25T15:27:59.732Z,67.89
2019-01-25T15:30:32.662Z,68.79
2019-01-25T15:33:03.287Z,68.23
2019-01-25T15:35:34.274Z,69.38
2019-01-25T15:38:04.611Z,70.26
2019-01-25T15:40:35.805Z,69.50
2019-01-25T15:43:06.414Z,70.51
2019-01-25T15:45:36.817Z,70.19
2019-01-25T15:48:07.573Z,70.30
2019-01-25T15:50:38.079Z,69.54
2019-01-25T15:53:08.452Z,70.75
2019-01-25T15:55:38.943Z,71.33
2019-01-25T15:58:09.376Z,72.35
2019-01-25T16:00:39.905Z,71.68
2019-01-25T16:03:10.832Z,72.28
2019-01-25T16:05:41.538Z,71.67
2019-01-25T16:08:12.211Z,72.38
2019-01-25T16:10:42.818Z,72.38
2019-01-25T16:13:13.467Z,73.16
2019-01-25T16:15:44.019Z,73.16
2019-01-25T16:18:14.627Z,72.91
2019-01-25T16:20:45.422Z,72.96
2019-01-25T16:23:15.775Z,73.18
2019-01-25T16:25:46.444Z,73.19
2019-01-25T16:28:17.875Z,73.61
2019-01-25T16:30:48.258Z,73.08
2019-01-25T16:33:18.662Z,73.98
2019-01-25T16:35:48.865Z,74.67
2019-01-25T16:38:19.615Z,74.55
2019-01-25T16:40:50.023Z,74.32
2019-01-25T16:43:23.070Z,74.84
2019-01-25T16:45:53.342Z,74.67
2019-01-25T16:48:23.791Z,74.69
2019-01-25T16:50:54.510Z,74.97
2019-01-25T16:53:24.953Z,74.62
2019-01-25T16:55:55.126Z,74.48
2019-01-25T16:58:25.453Z,74.46
2019-01-25T17:00:55.756Z,74.58
2019-01-25T17:03:26.472Z,74.81
2019-01-25T17:05:57.062Z,74.41
2019-01-25T17:08:27.228Z,74.78
2019-01-25T17:10:57.468Z,74.92
2019-01-25T17:13:27.753Z,74.55
2019-01-25T17:15:58.243Z,74.62
2019-01-25T17:18:28.800Z,74.48
2019-01-25T17:20:59.181Z,74.43
2019-01-25T17:23:30.078Z,75.27
2019-01-25T17:26:00.451Z,74.91
2019-01-25T17:28:30.675Z,74.51
2019-01-25T17:31:01.401Z,74.68
2019-01-25T17:33:32.927Z,74.67
2019-01-25T17:36:03.345Z,74.46
2019-01-25T17:38:34.224Z,74.40
2019-01-25T17:41:04.871Z,74.18
2019-01-25T17:43:35.340Z,74.36
2019-01-25T17:46:05.797Z,74.42
2019-01-25T17:48:36.232Z,73.98
2019-01-25T17:51:06.550Z,74.08
2019-01-25T17:53:37.097Z,73.72
2019-01-25T17:56:07.721Z,73.74
2019-01-25T17:58:39.418Z,73.83
2019-01-25T18:01:10.242Z,73.79
2019-01-25T18:03:40.694Z,73.71
2019-01-25T18:06:11.345Z,73.69
2019-01-25T18:08:41.672Z,73.70
2019-01-25T18:11:12.018Z,74.09
2019-01-25T18:13:42.620Z,73.90
2019-01-25T18:16:14.328Z,74.19
2019-01-25T18:18:46.497Z,74.43
2019-01-25T18:21:17.185Z,74.21
2019-01-25T18:23:47.578Z,74.06
2019-01-25T18:26:21.433Z,73.75
2019-01-25T18:29:01.196Z,74.36
2019-01-25T18:31:32.583Z,74.73
2019-01-25T18:34:02.898Z,74.22
2019-01-25T18:36:33.223Z,74.71
2019-01-25T18:39:05.875Z,74.29
2019-01-25T18:41:36.619Z,74.46
2019-01-25T18:44:07.763Z,74.06
2019-01-25T18:46:38.200Z,74.25
2019-01-25T18:49:08.868Z,74.61
2019-01-25T18:51:39.364Z,73.92
2019-01-25T18:54:09.759Z,73.35
2019-01-25T18:56:40.496Z,73.61
2019-01-25T18:59:10.997Z,73.52
2019-01-25T19:01:41.316Z,73.72
2019-01-25T19:04:12.025Z,73.47
2019-01-25T19:06:42.460Z,73.03
2019-01-25T19:09:13.727Z,73.70
2019-01-25T19:11:43.971Z,73.99
2019-01-25T19:14:14.427Z,73.74
2019-01-25T19:16:45.062Z,73.63
2019-01-25T19:19:15.519Z,73.11
2019-01-25T19:21:46.035Z,73.33
2019-01-25T19:24:16.742Z,72.92
2019-01-25T19:26:47.236Z,73.30
2019-01-25T19:29:17.747Z,72.51
2019-01-25T19:31:48.235Z,72.41
2019-01-25T19:34:18.859Z,72.54
2019-01-25T19:36:49.605Z,72.08
2019-01-25T19:39:19.962Z,71.63
2019-01-25T19:41:50.252Z,71.67
2019-01-25T19:44:20.822Z,71.40
2019-01-25T19:46:51.309Z,71.37
2019-01-25T19:49:21.692Z,71.77
2019-01-25T19:51:52.195Z,71.77
2019-01-25T19:54:22.814Z,71.51
2019-01-25T19:56:53.330Z,71.68
2019-01-25T19:59:25.234Z,71.27
2019-01-25T20:01:55.670Z,70.91
2019-01-25T20:04:26.164Z,70.73
2019-01-25T20:06:57.195Z,70.74
2019-01-25T20:09:28.763Z,70.10
2019-01-25T20:11:59.302Z,69.69
2019-01-25T20:14:30.063Z,70.29
2019-01-25T20:17:00.695Z,69.80
2019-01-25T20:19:34.515Z,70.08
2019-01-25T20:22:05.148Z,69.00
2019-01-25T20:24:35.699Z,68.81
2019-01-25T20:27:06.419Z,68.34
2019-01-25T20:29:36.690Z,69.09
2019-01-25T20:32:07.316Z,68.83
2019-01-25T20:34:38.827Z,68.69
2019-01-25T20:37:09.221Z,68.10
2019-01-25T20:39:40.918Z,68.61
2019-01-25T20:42:11.425Z,69.13
2019-01-25T20:44:42.350Z,69.44
2019-01-25T20:47:12.841Z,69.18
2019-01-25T20:49:43.445Z,68.98
2019-01-25T20:52:14.157Z,68.25
2019-01-25T20:54:44.511Z,68.69
2019-01-25T20:57:15.113Z,68.92
2019-01-25T20:59:45.638Z,69.19
2019-01-25T21:02:16.102Z,68.79
2019-01-25T21:04:46.657Z,68.99
2019-01-25T21:07:17.257Z,69.18
2019-01-25T21:09:49.084Z,69.42
2019-01-25T21:12:19.678Z,69.28
2019-01-25T21:14:49.956Z,69.12
2019-01-25T21:17:20.587Z,69.12
2019-01-25T21:19:51.377Z,69.75
2019-01-25T21:22:22.133Z,69.96
2019-01-25T21:24:52.791Z,70.27
2019-01-25T21:27:23.606Z,70.39
2019-01-25T21:29:54.092Z,69.44
2019-01-25T21:32:25.677Z,69.40
2019-01-25T21:34:56.183Z,69.92
2019-01-25T21:37:29.688Z,70.00
2019-01-25T21:40:08.169Z,69.32
2019-01-25T21:42:33.063Z,69.04
2019-01-25T21:45:04.812Z,69.05
2019-01-25T21:47:35.328Z,69.61
2019-01-25T21:50:08.179Z,69.17
2019-01-25T21:52:38.559Z,69.25
2019-01-25T21:55:10.591Z,68.43
2019-01-25T21:57:41.262Z,67.63
2019-01-25T22:00:17.898Z,68.16
2019-01-25T22:02:48.608Z,67.76
2019-01-25T22:05:22.024Z,68.08
2019-01-25T22:07:52.431Z,66.71
2019-01-25T22:10:34.409Z,67.45
2019-01-25T22:13:05.196Z,67.04
2019-01-25T22:15:35.604Z,67.45
2019-01-25T22:18:06.451Z,67.25
2019-01-25T22:20:36.770Z,67.03
2019-01-25T22:23:07.224Z,66.72
2019-01-25T22:25:37.497Z,66.72
2019-01-25T22:28:08.023Z,66.24
2019-01-25T22:30:38.887Z,66.26
2019-01-25T22:33:09.515Z,66.17
2019-01-25T22:35:39.995Z,66.17
2019-01-25T22:38:10.504Z,66.86
2019-01-25T22:40:40.961Z,66.82
2019-01-25T22:43:11.644Z,66.29
2019-01-25T22:45:42.161Z,66.37
2019-01-25T22:48:12.860Z,66.29
2019-01-25T22:50:43.305Z,65.78
2019-01-25T22:53:13.539Z,66.05
2019-01-25T22:55:43.670Z,65.39
2019-01-25T22:58:14.189Z,65.82
2019-01-25T23:01:00.724Z,65.56
2019-01-25T23:03:50.798Z,65.50
2019-01-25T23:06:33.089Z,66.00
2019-01-25T23:09:17.863Z,66.09
2019-01-25T23:11:48.164Z,66.03
2019-01-25T23:14:18.447Z,66.41
2019-01-25T23:16:49.695Z,66.88
2019-01-25T23:19:20.548Z,65.56
2019-01-25T23:21:53.489Z,66.52
2019-01-25T23:24:23.946Z,66.69
2019-01-25T23:26:55.060Z,67.02
2019-01-25T23:29:25.426Z,68.00
2019-01-25T23:31:55.753Z,68.56
2019-01-25T23:34:26.014Z,68.95
2019-01-25T23:36:56.183Z,69.40
2019-01-25T23:39:26.459Z,69.89
2019-01-25T23:41:56.633Z,69.84
2019-01-25T23:44:27.351Z,70.92
2019-01-25T23:46:57.612Z,71.41
2019-01-25T23:49:28.049Z,72.20
2019-01-25T23:51:58.309Z,73.44
2019-01-25T23:54:28.623Z,73.59
2019-01-25T23:56:59.043Z,74.91
2019-01-25T23:59:29.670Z,74.34
